Keswick, IA

3:56 AM CDT on September 03, 2014 (GMT -0500)
Dietze Weather Station | Change Station
CLOSE
Current Station
Personal Weather Station
Location: Millersburg, IA
Elevation: 883 ft
Nearby Weather Stations

Elev 883 ft 41.57 °N, 92.16 °W | Updated 2 seconds ago

Clear
Clear
61.4 °F
Feels Like 61.4 °F
N
0.4
Wind Variable Wind from ESE
Gusts 1.3 mph

Today
High -- | Low -- °F
--% Chance of Precip.
Yesterday
High -- | Low -- °F
Precip. -- in
6:37 AM 7:38 PM
First Quarter, 60% visible
Pressure 29.98 in
Visibility 10.0 miles
Clouds Clear
Dew Point 58 °F
Humidity 89%
Rainfall 0.00 in
Snow Depth Not available.
UV 0 out of 12
Pollen 9.60 out of 12
Air Quality Not available.
Flu Activity Not available.
METAR KOOA 030835Z AUTO 15004KT 10SM CLR 15/14 A2998 RMK AO2 T01500143

More Conditions Fewer Conditions

Pressure 29.98 in
Visibility 10.0 miles
Clouds Clear
Dew Point 58 °F
Humidity 89%
Rainfall 0.00 in
Snow Depth Not available.
UV 0 out of 12
Pollen 9.60 out of 12
Air Quality Not available.
Flu Activity Not available.
METAR KOOA 030835Z AUTO 15004KT 10SM CLR 15/14 A2998 RMK AO2 T01500143

More Conditions Fewer Conditions

10-Day Weather Forecast

Almanac

Astronomy

Sep. 03, 2014 Rise Set
Actual Time 6:37 AM CDT 7:38 PM CDT
Civil Twilight 6:08 AM CDT 8:06 PM CDT
Nautical Twilight 5:35 AM CDT 8:40 PM CDT
Astronomical Twilight 4:59 AM CDT 9:15 PM CDT
Moon 3:23 PM CDT 12:29 AM CDT
Length of Visible Light 13h 58m
Length of Day
13h 01m
Tomorrow will be 2m 40s shorter.
First Quarter, 60% of the Moon is Illuminated
Today
First Quarter
Sep 8
Full
Sep 15
Last Quarter
Sep 24
New
Oct 1
First Quarter

Today's Extremes

State Highs State Lows

Community

WunderPhotos

Upload Photos

1,749,902 photos uploaded!

Nearby

Snow Depth

Station Depth Elevation
No new snow has been reported.

Earthquake Activity

City Distance Mag. Time & Date
No recent earthquake activity has been reported nearby.
Minimum magnitude displayed is 2.5.

Coastal Water Temperatures

Place Temperature
No Stations Reporting

Nearby Weather Stations